createdAt,value
2023-01-18T00:00:15.025Z,88.00
2023-01-18T00:03:18.816Z,87.94
2023-01-18T00:06:22.581Z,88.32
2023-01-18T00:09:27.953Z,88.67
2023-01-18T00:12:31.836Z,88.07
2023-01-18T00:15:36.960Z,88.32
2023-01-18T00:18:41.279Z,88.36
2023-01-18T00:21:45.078Z,87.52
2023-01-18T00:24:50.148Z,86.89
2023-01-18T00:27:55.381Z,87.12
2023-01-18T00:30:59.239Z,85.46
2023-01-18T00:34:03.482Z,85.50
2023-01-18T00:37:07.279Z,84.97
2023-01-18T00:40:13.167Z,85.28
2023-01-18T00:43:33.911Z,84.30
2023-01-18T00:46:37.821Z,84.81
2023-01-18T00:49:41.334Z,85.00
2023-01-18T00:52:46.598Z,85.99
2023-01-18T00:55:51.631Z,85.86
2023-01-18T00:58:55.167Z,87.18
2023-01-18T01:01:58.884Z,87.67
2023-01-18T01:05:24.972Z,86.34
2023-01-18T01:08:28.687Z,86.43
2023-01-18T01:11:33.813Z,85.49
2023-01-18T01:14:56.752Z,86.11
2023-01-18T01:18:17.827Z,85.88
2023-01-18T01:21:39.131Z,86.60
2023-01-18T01:25:00.168Z,87.01
2023-01-18T01:28:05.279Z,87.01
2023-01-18T01:31:10.624Z,86.89
2023-01-18T01:34:14.482Z,86.85
2023-01-18T01:37:18.073Z,87.56
2023-01-18T01:40:21.735Z,87.46
2023-01-18T01:43:42.645Z,87.13
2023-01-18T01:46:50.400Z,87.55
2023-01-18T01:49:59.751Z,87.24
2023-01-18T01:53:04.025Z,87.93
2023-01-18T01:56:08.981Z,87.33
2023-01-18T01:59:15.755Z,88.37
2023-01-18T02:02:19.766Z,88.05
2023-01-18T02:05:24.506Z,87.32
2023-01-18T02:08:30.034Z,87.48
2023-01-18T02:11:33.860Z,87.61
2023-01-18T02:14:39.467Z,87.45
2023-01-18T02:18:01.969Z,87.65
2023-01-18T02:21:18.284Z,87.56
2023-01-18T02:25:05.229Z,88.20
2023-01-18T02:28:15.863Z,87.55
2023-01-18T02:31:21.045Z,87.28
2023-01-18T02:34:33.596Z,87.05
2023-01-18T02:37:45.362Z,87.54
2023-01-18T02:41:02.071Z,88.50
2023-01-18T02:44:24.279Z,88.20
2023-01-18T02:47:30.054Z,87.46
2023-01-18T02:50:33.638Z,88.70
2023-01-18T02:53:40.151Z,88.81
2023-01-18T02:56:48.717Z,88.94
2023-01-18T02:59:57.040Z,89.69
2023-01-18T03:03:01.504Z,88.49
2023-01-18T03:06:09.370Z,89.32
2023-01-18T03:09:21.745Z,88.58
2023-01-18T03:12:28.652Z,88.25
2023-01-18T03:15:44.887Z,88.63
2023-01-18T03:19:04.364Z,88.66
2023-01-18T03:22:08.084Z,89.21
2023-01-18T03:25:13.798Z,90.05
2023-01-18T03:28:38.478Z,90.54
2023-01-18T03:32:05.684Z,91.11
2023-01-18T03:35:14.291Z,90.29
2023-01-18T03:38:19.158Z,90.16
2023-01-18T03:41:26.339Z,89.76
2023-01-18T03:44:36.432Z,91.26
2023-01-18T03:47:41.717Z,91.18
2023-01-18T03:50:50.866Z,90.25
2023-01-18T03:54:02.770Z,89.75
2023-01-18T03:57:12.772Z,89.12
2023-01-18T04:00:17.726Z,89.26
2023-01-18T04:03:22.817Z,89.62
2023-01-18T04:06:26.729Z,90.17
2023-01-18T04:09:30.586Z,90.67
2023-01-18T04:12:35.241Z,90.62
2023-01-18T04:15:38.995Z,90.34
2023-01-18T04:18:44.073Z,89.90
2023-01-18T04:21:47.633Z,90.21
2023-01-18T04:24:51.339Z,92.09
2023-01-18T04:27:54.951Z,92.15
2023-01-18T04:30:58.806Z,92.33
2023-01-18T04:34:03.742Z,91.07
2023-01-18T04:37:07.377Z,91.42
2023-01-18T04:40:12.000Z,91.45
2023-01-18T04:43:15.534Z,91.27
2023-01-18T04:46:19.337Z,91.25
2023-01-18T04:49:24.484Z,90.95
2023-01-18T04:52:32.331Z,89.91
2023-01-18T04:55:35.849Z,89.85
2023-01-18T04:58:39.929Z,89.93
2023-01-18T05:01:43.750Z,89.26
2023-01-18T05:04:49.004Z,90.55
2023-01-18T05:07:52.712Z,90.63
2023-01-18T05:11:02.688Z,91.73
2023-01-18T05:14:06.333Z,91.04
2023-01-18T05:17:10.266Z,92.39
2023-01-18T05:20:15.617Z,90.77
2023-01-18T05:23:19.459Z,91.31
2023-01-18T05:26:25.842Z,91.37
2023-01-18T05:29:29.370Z,92.68
2023-01-18T05:32:33.039Z,91.11
2023-01-18T05:35:38.295Z,90.90
2023-01-18T05:38:42.071Z,90.49
2023-01-18T05:41:46.064Z,91.10
2023-01-18T05:44:49.781Z,91.29
2023-01-18T05:47:56.019Z,90.16
2023-01-18T05:51:01.012Z,93.16
2023-01-18T05:54:04.666Z,91.27
2023-01-18T05:57:08.478Z,90.62
2023-01-18T06:00:13.287Z,90.56
2023-01-18T06:03:17.099Z,90.87
2023-01-18T06:06:22.478Z,90.06
2023-01-18T06:09:26.259Z,90.53
2023-01-18T06:12:30.005Z,89.58
2023-01-18T06:15:34.069Z,89.16
2023-01-18T06:18:39.841Z,88.65
2023-01-18T06:21:45.118Z,91.11
2023-01-18T06:24:48.941Z,88.66
2023-01-18T06:27:52.934Z,87.57
2023-01-18T06:30:57.805Z,86.76
2023-01-18T06:34:07.081Z,86.97
2023-01-18T06:37:12.958Z,86.16
2023-01-18T06:40:17.918Z,85.64
2023-01-18T06:43:22.090Z,85.56
2023-01-18T06:46:25.921Z,85.20
2023-01-18T06:49:30.295Z,83.81
2023-01-18T06:52:35.559Z,81.42
2023-01-18T06:55:39.419Z,81.01
2023-01-18T06:58:43.558Z,78.27
2023-01-18T07:01:48.056Z,78.45
2023-01-18T07:04:51.899Z,76.80
2023-01-18T07:07:57.179Z,76.91
2023-01-18T07:11:05.054Z,76.77
2023-01-18T07:14:08.858Z,76.56
2023-01-18T07:17:12.699Z,77.97
2023-01-18T07:20:17.127Z,77.53
2023-01-18T07:23:22.300Z,78.45
2023-01-18T07:26:27.100Z,78.24
2023-01-18T07:29:31.060Z,79.71
2023-01-18T07:32:34.799Z,79.47
2023-01-18T07:35:38.760Z,80.17
2023-01-18T07:38:44.351Z,79.81
2023-01-18T07:41:48.320Z,79.16
2023-01-18T07:44:54.538Z,78.88
2023-01-18T07:47:58.438Z,77.16
2023-01-18T07:51:04.141Z,76.77
2023-01-18T07:54:09.560Z,76.15
2023-01-18T07:57:13.622Z,75.37
2023-01-18T08:00:17.684Z,74.11
2023-01-18T08:03:21.941Z,71.89
2023-01-18T08:06:27.477Z,68.97
2023-01-18T08:09:34.164Z,67.65
2023-01-18T08:12:38.061Z,66.92
2023-01-18T08:15:41.940Z,65.43
2023-01-18T08:18:46.398Z,65.08
2023-01-18T08:21:50.241Z,63.91
2023-01-18T08:24:55.520Z,62.34
2023-01-18T08:28:00.262Z,62.08
2023-01-18T08:31:12.658Z,62.59
2023-01-18T08:34:16.482Z,61.54
2023-01-18T08:37:20.446Z,60.53
2023-01-18T08:40:27.496Z,59.25
2023-01-18T08:43:31.504Z,58.51
2023-01-18T08:46:36.515Z,57.83
2023-01-18T08:49:40.259Z,56.93
2023-01-18T08:52:44.079Z,57.18
2023-01-18T08:55:49.839Z,56.00
2023-01-18T08:58:53.917Z,55.17
2023-01-18T09:01:58.963Z,54.92
2023-01-18T09:05:02.898Z,54.22
2023-01-18T09:08:07.200Z,52.88
2023-01-18T09:11:12.607Z,52.38
2023-01-18T09:14:16.952Z,52.40
2023-01-18T09:17:21.479Z,51.53
2023-01-18T09:20:25.718Z,50.01
2023-01-18T09:23:29.823Z,49.26
2023-01-18T09:26:35.166Z,48.42
2023-01-18T09:29:38.979Z,48.17
2023-01-18T09:32:42.872Z,47.97
2023-01-18T09:35:48.026Z,47.28
2023-01-18T09:38:51.801Z,46.92
2023-01-18T09:42:00.156Z,46.61
2023-01-18T09:45:05.079Z,45.72
2023-01-18T09:48:17.798Z,44.58
2023-01-18T09:51:24.487Z,44.97
2023-01-18T09:54:40.326Z,44.17
2023-01-18T09:58:00.526Z,42.44
2023-01-18T10:01:08.418Z,41.11
2023-01-18T10:04:18.701Z,41.49
2023-01-18T10:07:24.808Z,41.15
2023-01-18T10:10:29.562Z,40.20
2023-01-18T10:13:46.979Z,39.44
2023-01-18T10:16:57.064Z,39.64
2023-01-18T10:20:01.905Z,39.64
2023-01-18T10:23:16.240Z,39.99
2023-01-18T10:26:27.326Z,40.00
2023-01-18T10:29:50.684Z,39.61
2023-01-18T10:32:58.260Z,38.50
2023-01-18T10:36:09.607Z,39.22
2023-01-18T10:39:31.286Z,38.18
2023-01-18T10:42:41.240Z,37.35
2023-01-18T10:45:46.769Z,36.88
2023-01-18T10:48:51.922Z,37.43
2023-01-18T10:51:55.719Z,37.27
2023-01-18T10:55:01.859Z,37.94
2023-01-18T10:58:05.779Z,37.07
2023-01-18T11:01:18.011Z,37.49
2023-01-18T11:04:24.448Z,37.39
2023-01-18T11:07:29.679Z,37.17
2023-01-18T11:10:33.779Z,37.14
2023-01-18T11:13:43.884Z,38.11
2023-01-18T11:16:59.502Z,37.32
2023-01-18T11:20:07.825Z,37.39
2023-01-18T11:23:21.301Z,37.52
2023-01-18T11:26:25.559Z,37.59
2023-01-18T11:29:31.639Z,37.59
2023-01-18T11:32:38.221Z,37.71
2023-01-18T11:35:42.039Z,38.90
2023-01-18T11:38:45.939Z,39.61
2023-01-18T11:41:50.206Z,40.24
2023-01-18T11:45:05.943Z,40.53
2023-01-18T11:48:16.419Z,40.74
2023-01-18T11:51:28.059Z,40.57
2023-01-18T11:54:38.488Z,40.49
2023-01-18T11:57:43.856Z,39.91
2023-01-18T12:00:59.656Z,39.93
2023-01-18T12:04:12.660Z,40.09
2023-01-18T12:07:31.926Z,40.27
2023-01-18T12:10:43.759Z,39.68
2023-01-18T12:14:01.134Z,39.67
2023-01-18T12:17:38.058Z,39.73
2023-01-18T12:20:52.980Z,39.22
2023-01-18T12:24:11.638Z,38.98
2023-01-18T12:27:24.679Z,39.15
2023-01-18T12:30:50.287Z,39.20
2023-01-18T12:34:00.498Z,38.83
2023-01-18T12:37:20.280Z,38.94
2023-01-18T12:40:40.920Z,39.43
2023-01-18T12:43:57.580Z,39.87
2023-01-18T12:47:14.369Z,40.22
2023-01-18T12:50:25.586Z,40.59
2023-01-18T12:53:44.879Z,40.96
2023-01-18T12:56:52.079Z,41.14
2023-01-18T12:59:59.380Z,41.61
2023-01-18T13:03:11.219Z,41.40
2023-01-18T13:06:16.097Z,41.75
2023-01-18T13:09:24.918Z,41.84
2023-01-18T13:12:29.501Z,41.86
2023-01-18T13:15:44.499Z,41.59
2023-01-18T13:18:56.459Z,41.96
2023-01-18T13:22:08.838Z,41.84
2023-01-18T13:25:34.063Z,41.83
2023-01-18T13:28:38.786Z,42.12
2023-01-18T13:31:42.700Z,42.25
2023-01-18T13:34:49.012Z,42.38
2023-01-18T13:37:56.250Z,42.13
2023-01-18T13:41:04.217Z,41.71
2023-01-18T13:44:27.071Z,41.70
2023-01-18T13:47:51.064Z,41.88
2023-01-18T13:50:54.927Z,42.48
2023-01-18T13:53:58.747Z,42.06
2023-01-18T13:57:18.319Z,42.38
2023-01-18T14:00:26.015Z,42.62
2023-01-18T14:03:32.626Z,42.28
2023-01-18T14:06:39.599Z,42.49
2023-01-18T14:09:46.959Z,42.57
2023-01-18T14:12:54.038Z,42.23
2023-01-18T14:16:00.480Z,42.60
2023-01-18T14:19:17.306Z,43.30
2023-01-18T14:22:33.197Z,43.35
2023-01-18T14:25:53.619Z,43.33
2023-01-18T14:29:02.125Z,43.51
2023-01-18T14:32:10.799Z,44.02
2023-01-18T14:35:20.978Z,43.96
2023-01-18T14:38:24.896Z,43.85
2023-01-18T14:41:29.610Z,43.62
2023-01-18T14:44:56.956Z,43.77
2023-01-18T14:48:04.342Z,44.53
2023-01-18T14:51:08.320Z,44.54
2023-01-18T14:54:18.816Z,44.55
2023-01-18T14:57:24.077Z,44.80
2023-01-18T15:00:29.499Z,43.76
2023-01-18T15:03:33.859Z,44.16
2023-01-18T15:06:41.469Z,43.95
2023-01-18T15:09:46.239Z,44.28
2023-01-18T15:12:53.839Z,44.19
2023-01-18T15:16:01.514Z,44.77
2023-01-18T15:19:05.641Z,45.05
2023-01-18T15:22:13.797Z,45.13
2023-01-18T15:25:21.858Z,45.53
2023-01-18T15:28:31.820Z,45.99
2023-01-18T15:31:46.347Z,46.26
2023-01-18T15:34:51.859Z,46.00
2023-01-18T15:37:55.661Z,46.72
2023-01-18T15:41:04.419Z,47.05
2023-01-18T15:44:20.538Z,46.27
2023-01-18T15:47:30.138Z,46.78
2023-01-18T15:50:37.706Z,47.04
2023-01-18T15:53:46.380Z,46.97
2023-01-18T15:56:50.798Z,46.73
2023-01-18T15:59:55.558Z,47.21
2023-01-18T16:03:02.996Z,46.96
2023-01-18T16:06:13.852Z,46.97
2023-01-18T16:09:23.513Z,47.22
2023-01-18T16:12:36.701Z,48.30
2023-01-18T16:15:40.941Z,47.39
2023-01-18T16:18:49.204Z,47.92
2023-01-18T16:21:54.776Z,48.03
2023-01-18T16:25:01.719Z,49.04
2023-01-18T16:28:06.414Z,49.56
2023-01-18T16:31:10.409Z,49.83
2023-01-18T16:34:27.499Z,49.72
2023-01-18T16:37:31.838Z,49.93
2023-01-18T16:40:39.398Z,49.66
2023-01-18T16:43:45.098Z,49.55
2023-01-18T16:46:49.738Z,49.88
2023-01-18T16:49:55.098Z,49.88
2023-01-18T16:52:59.154Z,50.44
2023-01-18T16:56:02.978Z,50.38
2023-01-18T16:59:17.329Z,50.53
2023-01-18T17:02:21.322Z,50.58
2023-01-18T17:05:27.878Z,50.94
2023-01-18T17:08:31.906Z,51.50
2023-01-18T17:11:35.690Z,51.71
2023-01-18T17:14:39.582Z,51.46
2023-01-18T17:17:44.139Z,51.93
2023-01-18T17:20:49.410Z,52.04
2023-01-18T17:23:53.400Z,52.38
2023-01-18T17:26:57.239Z,52.85
2023-01-18T17:30:01.085Z,52.60
2023-01-18T17:33:04.903Z,51.84
2023-01-18T17:36:10.818Z,52.13
2023-01-18T17:39:15.698Z,51.88
2023-01-18T17:42:29.701Z,52.04
2023-01-18T17:45:34.120Z,53.26
2023-01-18T17:48:38.101Z,53.50
2023-01-18T17:51:43.399Z,53.55
2023-01-18T17:54:47.159Z,53.91
2023-01-18T17:57:50.938Z,53.89
2023-01-18T18:00:55.573Z,54.67
2023-01-18T18:03:59.468Z,54.83
2023-01-18T18:07:04.827Z,55.66
2023-01-18T18:10:09.920Z,55.58
2023-01-18T18:13:13.845Z,56.02
2023-01-18T18:16:18.849Z,54.08
2023-01-18T18:19:23.298Z,55.13
2023-01-18T18:22:28.743Z,55.30
2023-01-18T18:25:32.842Z,54.59
2023-01-18T18:28:36.707Z,53.63
2023-01-18T18:31:40.747Z,53.90
2023-01-18T18:34:44.699Z,52.17
2023-01-18T18:37:50.178Z,51.74
2023-01-18T18:40:54.719Z,51.87
2023-01-18T18:43:58.759Z,51.92
2023-01-18T18:47:04.868Z,51.76
2023-01-18T18:50:10.626Z,52.12
2023-01-18T18:53:16.922Z,51.76
2023-01-18T18:56:22.030Z,52.16
2023-01-18T18:59:25.840Z,52.67
2023-01-18T19:02:29.610Z,53.61
2023-01-18T19:05:34.565Z,53.89
2023-01-18T19:08:40.147Z,54.13
2023-01-18T19:11:50.639Z,54.53
2023-01-18T19:14:58.663Z,54.73
2023-01-18T19:18:02.457Z,55.14
2023-01-18T19:21:06.767Z,55.22
2023-01-18T19:24:11.959Z,55.52
2023-01-18T19:27:15.882Z,55.77
2023-01-18T19:30:20.265Z,56.64
2023-01-18T19:33:24.218Z,56.70
2023-01-18T19:36:28.201Z,57.45
2023-01-18T19:39:35.131Z,57.06
2023-01-18T19:42:39.519Z,57.34
2023-01-18T19:45:43.379Z,57.47
2023-01-18T19:48:47.240Z,57.98
2023-01-18T19:51:52.040Z,58.08
2023-01-18T19:54:58.971Z,58.21
2023-01-18T19:58:03.128Z,57.95
2023-01-18T20:01:11.524Z,57.94
2023-01-18T20:04:15.750Z,58.67
2023-01-18T20:07:19.699Z,59.20
2023-01-18T20:10:24.963Z,58.95
2023-01-18T20:13:30.201Z,59.71
2023-01-18T20:16:34.245Z,59.75
2023-01-18T20:19:38.172Z,60.12
2023-01-18T20:22:45.281Z,60.32
2023-01-18T20:25:53.320Z,60.43
2023-01-18T20:28:57.299Z,61.03
2023-01-18T20:32:13.476Z,61.04
2023-01-18T20:35:19.191Z,61.63
2023-01-18T20:38:23.038Z,62.08
2023-01-18T20:41:28.340Z,62.70
2023-01-18T20:44:32.426Z,65.83
2023-01-18T20:47:36.358Z,65.81
2023-01-18T20:50:40.219Z,66.02
2023-01-18T20:53:44.179Z,65.58
2023-01-18T20:56:49.559Z,66.08
2023-01-18T20:59:53.380Z,67.70
2023-01-18T21:02:57.425Z,68.37
2023-01-18T21:06:01.378Z,68.65
2023-01-18T21:09:05.607Z,69.29
2023-01-18T21:12:10.901Z,70.97
2023-01-18T21:15:14.707Z,72.20
2023-01-18T21:18:18.545Z,71.28
2023-01-18T21:21:22.482Z,72.43
2023-01-18T21:24:26.239Z,72.16
2023-01-18T21:27:33.439Z,73.36
2023-01-18T21:30:37.121Z,73.90
2023-01-18T21:33:41.029Z,76.30
2023-01-18T21:36:45.120Z,73.52
2023-01-18T21:39:48.996Z,73.12
2023-01-18T21:43:11.723Z,72.97
2023-01-18T21:46:15.603Z,74.43
2023-01-18T21:50:03.966Z,75.44
2023-01-18T21:53:18.181Z,75.94
2023-01-18T21:56:22.418Z,75.04
2023-01-18T21:59:27.639Z,75.54
2023-01-18T22:02:31.686Z,77.66
2023-01-18T22:05:35.507Z,77.22
2023-01-18T22:08:39.378Z,77.69
2023-01-18T22:11:43.624Z,78.33
2023-01-18T22:14:49.202Z,79.53
2023-01-18T22:17:53.339Z,78.29
2023-01-18T22:20:57.684Z,77.06
2023-01-18T22:24:01.676Z,78.28
2023-01-18T22:27:06.142Z,77.20
2023-01-18T22:30:13.387Z,77.96
2023-01-18T22:33:17.423Z,78.91
2023-01-18T22:36:21.449Z,79.01
2023-01-18T22:39:25.669Z,78.68
2023-01-18T22:42:29.691Z,77.51
2023-01-18T22:45:35.082Z,79.22
2023-01-18T22:48:40.144Z,79.05
2023-01-18T22:51:45.070Z,79.41
2023-01-18T22:54:49.004Z,78.90
2023-01-18T22:57:53.008Z,77.87
2023-01-18T23:00:58.548Z,77.30
2023-01-18T23:04:04.787Z,78.57
2023-01-18T23:07:08.875Z,81.96
2023-01-18T23:10:12.863Z,81.37
2023-01-18T23:13:16.982Z,84.40
2023-01-18T23:16:39.501Z,84.57
2023-01-18T23:19:43.552Z,84.64
2023-01-18T23:22:47.686Z,83.44
2023-01-18T23:25:55.975Z,82.43
2023-01-18T23:28:59.982Z,82.82
2023-01-18T23:32:05.673Z,83.42
2023-01-18T23:35:10.222Z,83.15
2023-01-18T23:38:14.165Z,82.82
2023-01-18T23:41:35.262Z,82.80
2023-01-18T23:44:56.985Z,83.74
2023-01-18T23:48:25.242Z,87.65
2023-01-18T23:51:46.201Z,87.99
2023-01-18T23:54:50.162Z,88.91
2023-01-18T23:57:54.231Z,86.41
